Time;durP1;ratioP1;P1;durP2;ratioP2;P2;SDS_P1;SDS_P2;PMS_P1;PMS_P2;Temp;Humidity;BMP_temperature;BMP_pressure;BME280_temperature;BME280_humidity;BME280_pressure;Samples;Min_cycle;Max_cycle;Signal;HPM_P1;HPM_P2
2022/11/25 00:00:53;;;;;;;4.37;2.37;;;3.90;99.90;;;;;;5074950;28;20276;-81
2022/11/25 00:03:19;;;;;;;4.00;2.10;;;3.90;99.90;;;;;;5074696;28;20712;-81
2022/11/25 00:05:44;;;;;;;3.83;1.90;;;3.90;99.90;;;;;;5074816;28;20177;-81
2022/11/25 00:08:10;;;;;;;3.37;2.13;;;3.90;99.90;;;;;;5073172;28;20659;-81
2022/11/25 00:10:36;;;;;;;7.17;2.70;;;3.90;99.90;;;;;;5073516;28;20230;-81
2022/11/25 00:13:02;;;;;;;4.40;2.47;;;3.90;99.90;;;;;;5072984;28;20173;-81
2022/11/25 00:15:28;;;;;;;3.90;2.00;;;3.90;99.90;;;;;;5073274;28;20169;-81
2022/11/25 00:17:53;;;;;;;4.43;2.10;;;4.00;99.90;;;;;;5074606;28;20191;-81
2022/11/25 00:20:20;;;;;;;3.77;2.17;;;4.10;99.90;;;;;;5072734;28;20173;-81
2022/11/25 00:22:45;;;;;;;5.23;2.10;;;4.00;99.90;;;;;;5072916;28;20180;-81
2022/11/25 00:25:11;;;;;;;4.80;2.20;;;4.00;99.90;;;;;;5072958;28;20674;-80
2022/11/25 00:27:37;;;;;;;3.40;2.00;;;4.00;99.90;;;;;;5073140;28;20219;-81
2022/11/25 00:30:03;;;;;;;6.00;2.37;;;4.00;99.90;;;;;;5073118;28;20232;-81
2022/11/25 00:32:28;;;;;;;5.83;3.27;;;4.00;99.90;;;;;;5056610;22;20705;-80
2022/11/25 00:34:54;;;;;;;8.37;4.33;;;4.00;99.90;;;;;;5031788;28;20178;-80
2022/11/25 00:37:19;;;;;;;6.20;4.20;;;3.90;99.90;;;;;;5032059;28;20171;-79
2022/11/25 00:39:45;;;;;;;7.17;4.13;;;3.80;99.90;;;;;;5033010;28;20170;-80
2022/11/25 00:44:55;;;;;;;5.60;3.83;;;3.70;99.90;;;;;;5033264;28;20181;-81
2022/11/25 00:47:20;;;;;;;4.67;3.33;;;3.70;99.90;;;;;;5031454;28;20174;-80
2022/11/25 00:49:52;;;;;;;8.83;3.80;;;3.70;99.90;;;;;;5032864;28;20200;-80
2022/11/25 00:52:26;;;;;;;5.20;3.30;;;3.70;99.90;;;;;;5032704;28;20197;-80
2022/11/25 00:54:53;;;;;;;4.23;3.07;;;3.70;99.90;;;;;;5032836;28;20170;-80
2022/11/25 00:57:20;;;;;;;4.47;2.23;;;3.80;99.90;;;;;;5032906;28;20188;-80
2022/11/25 00:59:49;;;;;;;9.47;2.80;;;3.80;99.90;;;;;;5032606;28;20178;-80
2022/11/25 01:02:16;;;;;;;4.03;2.60;;;3.90;99.90;;;;;;5031407;28;20198;-79
2022/11/25 01:04:42;;;;;;;5.50;2.53;;;3.80;99.90;;;;;;5031076;28;20180;-80
2022/11/25 01:07:07;;;;;;;4.57;2.50;;;3.80;99.90;;;;;;5031121;28;20265;-80
2022/11/25 01:09:33;;;;;;;5.37;2.80;;;3.80;99.90;;;;;;5032542;28;20287;-80
2022/11/25 01:11:59;;;;;;;5.33;2.63;;;3.80;99.90;;;;;;5032525;28;20208;-80
2022/11/25 01:14:25;;;;;;;6.90;2.07;;;3.90;99.90;;;;;;5030889;28;20178;-81
2022/11/25 01:16:51;;;;;;;4.13;2.03;;;3.90;99.90;;;;;;5032689;28;20270;-80
2022/11/25 01:19:17;;;;;;;4.53;1.93;;;3.90;99.90;;;;;;5031259;28;20273;-80
2022/11/25 01:21:43;;;;;;;4.60;1.97;;;4.00;99.90;;;;;;5031259;28;20239;-80
2022/11/25 01:24:10;;;;;;;3.23;1.90;;;4.00;99.90;;;;;;5031100;28;20201;-80
2022/11/25 01:26:36;;;;;;;4.80;1.83;;;4.10;99.90;;;;;;5032389;28;20257;-80
2022/11/25 01:29:05;;;;;;;3.73;1.70;;;4.10;99.90;;;;;;5030966;28;20209;-80
2022/11/25 01:31:33;;;;;;;7.97;1.80;;;4.10;99.90;;;;;;5032193;28;20222;-80
2022/11/25 01:34:02;;;;;;;5.80;2.10;;;4.10;99.90;;;;;;5031995;28;20644;-81
2022/11/25 01:36:29;;;;;;;4.53;2.07;;;4.10;99.90;;;;;;5032250;28;20178;-80
2022/11/25 01:38:56;;;;;;;5.03;3.00;;;4.00;99.90;;;;;;5031199;28;20182;-80
2022/11/25 01:41:24;;;;;;;4.67;2.23;;;4.00;99.90;;;;;;5032213;28;20205;-80
2022/11/25 01:44:04;;;;;;;4.33;2.60;;;3.80;99.90;;;;;;5032008;28;20182;-80
2022/11/25 01:46:40;;;;;;;4.73;2.70;;;3.80;99.90;;;;;;5032463;28;20182;-80
2022/11/25 01:49:09;;;;;;;4.63;3.10;;;3.60;99.90;;;;;;5030777;28;20216;-80
2022/11/25 01:51:41;;;;;;;6.43;3.20;;;3.60;99.90;;;;;;5032036;28;20264;-80
2022/11/25 01:54:11;;;;;;;5.97;3.03;;;3.50;99.90;;;;;;5030825;28;20228;-80
2022/11/25 01:56:48;;;;;;;5.73;3.00;;;3.50;99.90;;;;;;5032195;28;20175;-80
2022/11/25 01:59:14;;;;;;;6.07;2.87;;;3.40;99.90;;;;;;5030964;28;20200;-80
2022/11/25 02:01:40;;;;;;;5.17;3.30;;;3.20;99.90;;;;;;5032103;28;20199;-82
2022/11/25 02:04:08;;;;;;;5.57;3.27;;;3.20;99.90;;;;;;5030673;28;20173;-81
2022/11/25 02:07:03;;;;;;;4.77;2.97;;;3.10;99.90;;;;;;5030460;28;20190;-80
2022/11/25 02:09:29;;;;;;;5.80;3.00;;;3.10;99.90;;;;;;5030057;28;20187;-83
2022/11/25 02:11:56;;;;;;;4.90;2.80;;;3.10;99.90;;;;;;5030465;28;20198;-81
2022/11/25 02:14:24;;;;;;;5.30;2.63;;;3.20;99.90;;;;;;5030735;28;20179;-81
2022/11/25 02:16:49;;;;;;;5.20;2.67;;;3.20;99.90;;;;;;5032873;28;20181;-81
2022/11/25 02:19:45;;;;;;;4.57;2.40;;;3.20;99.90;;;;;;5034629;28;20181;-80
2022/11/25 02:22:17;;;;;;;5.87;2.50;;;3.30;99.90;;;;;;4993107;28;20208;-81
2022/11/25 02:24:45;;;;;;;4.50;2.20;;;3.40;99.90;;;;;;5034307;28;20211;-81
2022/11/25 02:27:11;;;;;;;3.63;1.97;;;3.40;99.90;;;;;;5034171;28;20680;-82
2022/11/25 02:29:38;;;;;;;5.40;2.13;;;3.40;99.90;;;;;;5034172;28;20182;-81
2022/11/25 02:32:04;;;;;;;2.73;2.00;;;3.50;99.90;;;;;;5033928;28;20217;-81
2022/11/25 02:34:30;;;;;;;3.50;1.97;;;3.50;99.90;;;;;;5033906;28;20644;-81
2022/11/25 02:36:55;;;;;;;3.73;1.87;;;3.50;99.90;;;;;;5034341;28;20186;-81
2022/11/25 02:39:21;;;;;;;3.20;1.90;;;3.60;99.90;;;;;;5033951;28;20228;-81
2022/11/25 02:41:51;;;;;;;4.43;1.73;;;3.60;99.90;;;;;;5033977;28;20209;-81
2022/11/25 02:44:17;;;;;;;5.03;1.53;;;3.70;99.90;;;;;;5034135;28;20270;-81
2022/11/25 02:46:43;;;;;;;4.27;1.63;;;3.70;99.90;;;;;;5033959;28;20637;-81
2022/11/25 02:49:08;;;;;;;5.10;2.00;;;3.70;99.90;;;;;;5033980;28;20189;-81
2022/11/25 02:51:34;;;;;;;3.67;1.73;;;3.70;99.90;;;;;;5034977;28;20224;-81
2022/11/25 02:54:00;;;;;;;4.80;1.80;;;3.70;99.90;;;;;;5033691;28;20228;-81
2022/11/25 02:56:32;;;;;;;3.33;1.30;;;3.60;99.90;;;;;;5034827;28;20181;-81
2022/11/25 02:58:58;;;;;;;4.40;1.60;;;3.60;99.90;;;;;;5033912;28;20635;-81
2022/11/25 03:01:23;;;;;;;2.73;1.60;;;3.60;99.90;;;;;;5034622;28;20224;-81
2022/11/25 03:03:49;;;;;;;4.93;2.10;;;3.60;99.90;;;;;;5034875;28;20194;-81
2022/11/25 03:06:14;;;;;;;4.43;1.97;;;3.60;99.90;;;;;;5033366;28;20221;-81
2022/11/25 03:08:40;;;;;;;4.17;2.40;;;3.60;99.90;;;;;;5033531;28;20213;-81
2022/11/25 03:11:06;;;;;;;5.03;2.50;;;3.50;99.90;;;;;;5034331;28;20202;-81
2022/11/25 03:13:32;;;;;;;3.40;2.33;;;3.50;99.90;;;;;;5034669;28;20179;-82
2022/11/25 03:15:57;;;;;;;5.07;2.17;;;3.40;99.90;;;;;;5033551;28;20213;-81
2022/11/25 03:18:23;;;;;;;3.00;1.70;;;3.30;99.90;;;;;;5033135;28;20194;-82
2022/11/25 03:20:53;;;;;;;2.67;1.87;;;3.20;99.90;;;;;;5033103;28;20202;-82
2022/11/25 03:23:20;;;;;;;5.40;1.87;;;3.30;99.90;;;;;;5033986;28;20182;-82
2022/11/25 03:25:45;;;;;;;3.07;1.40;;;3.30;99.90;;;;;;5032797;28;20652;-82
2022/11/25 03:28:11;;;;;;;3.30;1.73;;;3.40;99.90;;;;;;5033574;28;20249;-82
2022/11/25 03:30:36;;;;;;;4.50;1.83;;;3.50;99.90;;;;;;5032848;28;20198;-82
2022/11/25 03:33:02;;;;;;;5.97;1.87;;;3.50;99.90;;;;;;5033613;28;20289;-82
2022/11/25 03:35:28;;;;;;;5.27;1.80;;;3.60;99.90;;;;;;5032905;28;20182;-82
2022/11/25 03:37:54;;;;;;;4.37;1.70;;;3.80;99.90;;;;;;5032810;28;20265;-82
2022/11/25 03:40:19;;;;;;;5.83;1.87;;;4.00;99.90;;;;;;5034192;28;20179;-81
2022/11/25 03:42:45;;;;;;;5.43;1.93;;;4.10;99.90;;;;;;5033661;28;20552;-81
2022/11/25 03:45:13;;;;;;;6.23;1.50;;;4.10;99.90;;;;;;5025424;28;20174;-82
2022/11/25 03:47:40;;;;;;;3.60;1.47;;;4.10;99.90;;;;;;5033624;28;20228;-82
2022/11/25 03:50:06;;;;;;;5.07;1.77;;;4.10;99.90;;;;;;5032562;28;20225;-82
2022/11/25 03:52:32;;;;;;;6.67;1.83;;;4.20;99.90;;;;;;5032196;28;20236;-82
2022/11/25 03:54:57;;;;;;;6.27;2.13;;;4.20;99.90;;;;;;5032582;28;20175;-82
2022/11/25 03:57:23;;;;;;;6.27;2.13;;;4.20;99.90;;;;;;5033873;28;20184;-82
2022/11/25 03:59:48;;;;;;;3.50;1.60;;;4.20;99.90;;;;;;5033663;28;20651;-82
2022/11/25 04:02:14;;;;;;;6.23;2.00;;;4.20;99.90;;;;;;5033588;28;20635;-80
2022/11/25 04:04:40;;;;;;;7.17;1.60;;;4.20;99.90;;;;;;5032357;28;20594;-82
2022/11/25 04:07:06;;;;;;;4.73;1.67;;;4.20;99.90;;;;;;5032138;28;20766;-82
2022/11/25 04:09:31;;;;;;;5.13;1.83;;;4.30;99.90;;;;;;5033655;28;20258;-81
2022/11/25 04:14:41;;;;;;;4.30;1.40;;;4.40;99.90;;;;;;5033554;28;20655;-82
2022/11/25 04:17:07;;;;;;;8.53;2.37;;;4.40;99.90;;;;;;5033457;28;20166;-81
2022/11/25 04:19:32;;;;;;;3.83;1.57;;;4.40;99.90;;;;;;5033480;28;20185;-82
2022/11/25 04:22:01;;;;;;;6.70;1.80;;;4.40;99.90;;;;;;5033126;28;20194;-82
2022/11/25 04:24:27;;;;;;;7.23;1.97;;;4.40;99.90;;;;;;5033240;28;20237;-81
2022/11/25 04:26:53;;;;;;;4.93;1.70;;;4.50;99.90;;;;;;5032159;28;20659;-81
2022/11/25 04:29:19;;;;;;;5.07;1.90;;;4.50;99.90;;;;;;5033014;28;20294;-81
2022/11/25 04:31:44;;;;;;;5.53;1.60;;;4.60;99.90;;;;;;5031963;28;20206;-81
2022/11/25 04:34:10;;;;;;;6.17;1.83;;;4.70;99.90;;;;;;5031650;28;20184;-83
2022/11/25 04:36:36;;;;;;;6.63;1.90;;;4.60;99.90;;;;;;5033247;28;20217;-81
2022/11/25 04:39:01;;;;;;;5.87;2.00;;;4.60;99.90;;;;;;5032859;28;20177;-81
2022/11/25 04:41:27;;;;;;;10.03;1.87;;;4.50;99.90;;;;;;5032911;28;20194;-82
2022/11/25 04:43:52;;;;;;;4.00;1.73;;;4.50;99.90;;;;;;5032666;28;20236;-81
2022/11/25 04:46:21;;;;;;;4.67;1.77;;;4.40;99.90;;;;;;5032656;28;20641;-82
2022/11/25 04:48:47;;;;;;;6.20;2.00;;;4.40;99.90;;;;;;5031500;28;20174;-81
2022/11/25 04:51:13;;;;;;;6.67;1.73;;;4.50;99.90;;;;;;5031379;28;20209;-81
2022/11/25 04:53:39;;;;;;;6.07;2.10;;;4.60;99.90;;;;;;5032682;28;20524;-82
2022/11/25 04:56:05;;;;;;;8.27;2.07;;;4.70;99.90;;;;;;5031640;28;20175;-81
2022/11/25 05:01:15;;;;;;;8.07;2.07;;;4.80;99.90;;;;;;5032786;28;20244;-81
2022/11/25 05:03:40;;;;;;;10.23;2.07;;;4.80;99.90;;;;;;5031136;28;20178;-82
2022/11/25 05:06:09;;;;;;;7.63;2.10;;;4.70;99.90;;;;;;5032666;28;20182;-81
2022/11/25 05:08:35;;;;;;;5.30;1.67;;;5.00;99.90;;;;;;5031613;28;20674;-82
2022/11/25 05:11:01;;;;;;;5.30;1.70;;;5.20;99.90;;;;;;5032406;28;20248;-81
2022/11/25 05:13:26;;;;;;;7.23;1.73;;;5.30;99.90;;;;;;5031030;28;20209;-81
2022/11/25 05:15:52;;;;;;;8.40;2.10;;;5.30;99.90;;;;;;5030958;28;20216;-81
2022/11/25 05:18:17;;;;;;;4.93;1.90;;;5.30;99.90;;;;;;5032573;28;20190;-81
2022/11/25 05:20:43;;;;;;;6.10;1.80;;;5.20;99.90;;;;;;5030991;28;20216;-81
2022/11/25 05:23:09;;;;;;;7.60;1.70;;;5.10;99.90;;;;;;5031046;28;20186;-81
2022/11/25 05:25:34;;;;;;;7.73;2.00;;;5.10;99.90;;;;;;5031190;28;20186;-82
2022/11/25 05:28:01;;;;;;;6.03;2.40;;;5.00;99.90;;;;;;5031041;28;20182;-82
2022/11/25 05:30:26;;;;;;;7.37;2.40;;;4.90;99.90;;;;;;5032037;28;20618;-81
2022/11/25 05:32:52;;;;;;;5.27;1.90;;;4.90;99.90;;;;;;5030714;28;20213;-81
2022/11/25 05:35:18;;;;;;;4.70;2.00;;;4.90;99.90;;;;;;5031161;28;20264;-81
2022/11/25 05:37:44;;;;;;;3.57;1.70;;;4.80;99.90;;;;;;5030974;28;20179;-81
2022/11/25 05:40:10;;;;;;;8.83;2.57;;;4.70;99.90;;;;;;5032630;28;20226;-82
2022/11/25 05:42:35;;;;;;;5.47;2.10;;;4.80;99.90;;;;;;5031755;28;20253;-82
2022/11/25 05:45:01;;;;;;;7.83;1.93;;;4.80;99.90;;;;;;5032048;28;20272;-83
2022/11/25 05:47:27;;;;;;;7.77;2.20;;;4.80;99.90;;;;;;5030901;28;20278;-81
2022/11/25 05:49:52;;;;;;;7.20;2.10;;;4.90;99.90;;;;;;5032125;28;20208;-82
2022/11/25 05:52:18;;;;;;;5.00;2.10;;;4.90;99.90;;;;;;5033724;28;20265;-81
2022/11/25 05:54:43;;;;;;;6.13;1.90;;;4.90;99.90;;;;;;5036270;28;20167;-81
2022/11/25 05:57:09;;;;;;;5.73;1.80;;;4.80;99.90;;;;;;5034698;28;20189;-81
2022/11/25 05:59:35;;;;;;;5.93;1.90;;;4.90;99.90;;;;;;5035658;28;20166;-82
2022/11/25 06:02:00;;;;;;;5.27;1.80;;;4.90;99.90;;;;;;5034678;28;20251;-81
2022/11/25 06:04:26;;;;;;;7.47;1.90;;;4.90;99.90;;;;;;5034595;28;20182;-82
2022/11/25 06:06:51;;;;;;;3.33;1.70;;;4.90;99.90;;;;;;5035977;28;20186;-82
2022/11/25 06:09:17;;;;;;;8.50;2.47;;;4.90;99.90;;;;;;5035898;28;20265;-83
2022/11/25 06:11:43;;;;;;;4.83;1.90;;;4.80;99.90;;;;;;5034332;28;20213;-83
2022/11/25 06:14:08;;;;;;;4.93;1.50;;;4.80;99.90;;;;;;5033913;28;20170;-83
2022/11/25 06:16:34;;;;;;;6.70;1.73;;;4.70;99.90;;;;;;5034497;28;20173;-83
2022/11/25 06:19:04;;;;;;;5.27;2.00;;;4.60;99.90;;;;;;5034215;28;20206;-83
2022/11/25 06:21:30;;;;;;;7.07;2.13;;;4.60;99.90;;;;;;5034146;28;20202;-82
2022/11/25 06:23:55;;;;;;;4.83;2.00;;;4.60;99.90;;;;;;5035362;28;20174;-83
2022/11/25 06:26:21;;;;;;;5.57;2.17;;;4.60;99.90;;;;;;5034322;28;20190;-83
2022/11/25 06:28:49;;;;;;;6.23;2.37;;;4.70;99.90;;;;;;5035107;28;20188;-83
2022/11/25 06:31:19;;;;;;;7.57;2.30;;;4.70;99.90;;;;;;5059065;22;20219;-80
2022/11/25 06:33:49;;;;;;;6.33;2.00;;;4.80;99.90;;;;;;5015627;28;20187;-82
2022/11/25 06:36:16;;;;;;;5.50;2.50;;;4.80;99.90;;;;;;5032800;28;20199;-82
2022/11/25 06:38:50;;;;;;;6.67;1.90;;;4.70;99.90;;;;;;5017733;28;20182;-83
2022/11/25 06:41:16;;;;;;;5.97;1.93;;;4.80;99.90;;;;;;5017635;28;20175;-82
2022/11/25 06:43:41;;;;;;;6.67;2.47;;;4.90;99.90;;;;;;5016816;28;20243;-81
2022/11/25 06:46:09;;;;;;;6.37;1.80;;;5.00;99.90;;;;;;5016633;28;20171;-80
2022/11/25 06:48:35;;;;;;;5.40;2.10;;;5.10;99.90;;;;;;5015188;28;20199;-81
2022/11/25 06:51:05;;;;;;;5.97;1.90;;;5.40;99.90;;;;;;5014847;28;20233;-81
2022/11/25 06:53:31;;;;;;;3.73;2.00;;;5.50;99.90;;;;;;5030907;28;20226;-80
2022/11/25 06:56:26;;;;;;;7.37;1.80;;;5.40;99.90;;;;;;5015995;28;20172;-80
2022/11/25 06:58:53;;;;;;;6.17;2.10;;;5.50;99.90;;;;;;4999136;28;20190;-80
2022/11/25 07:01:22;;;;;;;5.27;1.73;;;5.60;99.90;;;;;;5016128;28;20179;-82
2022/11/25 07:03:51;;;;;;;5.50;1.90;;;5.60;99.90;;;;;;5015871;28;20681;-80
2022/11/25 07:06:18;;;;;;;7.60;2.10;;;5.60;99.90;;;;;;5015128;28;20210;-79
2022/11/25 07:08:44;;;;;;;6.10;2.40;;;5.60;99.90;;;;;;5015725;28;20187;-82
2022/11/25 07:11:17;;;;;;;7.67;2.17;;;5.70;99.90;;;;;;5014325;28;20195;-82
2022/11/25 07:13:43;;;;;;;3.77;1.80;;;5.60;99.90;;;;;;5014692;28;20168;-81
2022/11/25 07:16:10;;;;;;;5.87;2.47;;;5.70;99.90;;;;;;5015785;28;20178;-82
2022/11/25 07:18:37;;;;;;;8.17;2.60;;;5.70;99.90;;;;;;5014723;28;20259;-82
2022/11/25 07:21:09;;;;;;;7.07;2.00;;;5.70;99.90;;;;;;5015904;28;20229;-82
2022/11/25 07:23:36;;;;;;;5.97;2.30;;;5.70;99.90;;;;;;5015900;28;20193;-82
2022/11/25 07:26:06;;;;;;;7.60;2.27;;;5.80;99.90;;;;;;5016589;28;20176;-82
2022/11/25 07:28:32;;;;;;;8.87;2.40;;;5.90;99.90;;;;;;5015067;28;20548;-82
2022/11/25 07:31:12;;;;;;;6.20;2.17;;;5.90;99.90;;;;;;5015644;28;20199;-82
2022/11/25 07:33:38;;;;;;;7.03;2.17;;;5.80;99.90;;;;;;5014424;28;20230;-82
2022/11/25 07:36:05;;;;;;;5.57;2.50;;;5.80;99.90;;;;;;5015512;28;20171;-82
2022/11/25 07:38:32;;;;;;;6.43;2.10;;;5.80;99.90;;;;;;5015114;28;20177;-81
2022/11/25 07:41:11;;;;;;;4.87;1.90;;;5.90;99.90;;;;;;5014262;28;20191;-82
2022/11/25 07:43:38;;;;;;;4.27;2.07;;;6.00;99.90;;;;;;5014184;28;20181;-82
2022/11/25 07:46:14;;;;;;;5.47;2.20;;;6.00;99.90;;;;;;5013905;28;20172;-82
2022/11/25 07:48:40;;;;;;;6.63;1.93;;;6.00;99.90;;;;;;5015059;28;20174;-82
2022/11/25 07:51:20;;;;;;;7.30;2.17;;;6.10;99.90;;;;;;5014708;28;20227;-82
2022/11/25 07:53:47;;;;;;;4.87;2.10;;;6.20;99.90;;;;;;5015246;28;20156;-82
2022/11/25 07:56:14;;;;;;;5.93;1.97;;;6.30;99.90;;;;;;5015097;28;20176;-81
2022/11/25 07:58:40;;;;;;;4.23;2.03;;;6.30;99.90;;;;;;5014029;28;20647;-82
2022/11/25 08:01:07;;;;;;;5.00;1.93;;;6.30;99.90;;;;;;5014959;28;20180;-82
2022/11/25 08:03:34;;;;;;;4.73;2.13;;;6.30;99.90;;;;;;5013919;28;20182;-82
2022/11/25 08:06:01;;;;;;;7.53;3.27;;;6.20;99.90;;;;;;5015057;28;20187;-82
2022/11/25 08:08:27;;;;;;;8.93;4.27;;;6.20;99.90;;;;;;5013398;28;20190;-82
2022/11/25 08:10:53;;;;;;;7.23;3.23;;;6.20;99.90;;;;;;5010535;28;20201;-82
2022/11/25 08:13:18;;;;;;;6.97;3.00;;;6.10;99.90;;;;;;5012244;28;20234;-82
2022/11/25 08:15:44;;;;;;;9.77;4.50;;;6.20;99.90;;;;;;5012044;28;20183;-82
2022/11/25 08:18:09;;;;;;;4.90;2.73;;;6.20;99.90;;;;;;5014517;28;20246;-82
2022/11/25 08:20:35;;;;;;;7.73;3.33;;;6.20;99.90;;;;;;5017495;28;20184;-82
2022/11/25 08:23:01;;;;;;;7.20;2.70;;;6.20;99.90;;;;;;5027357;28;20668;-81
2022/11/25 08:25:28;;;;;;;5.67;2.20;;;6.40;99.90;;;;;;5013509;28;20200;-82
2022/11/25 08:27:54;;;;;;;5.13;2.33;;;6.60;99.90;;;;;;5011716;28;20183;-81
2022/11/25 08:30:23;;;;;;;6.67;2.20;;;6.80;99.90;;;;;;5028512;28;20206;-82
2022/11/25 08:32:49;;;;;;;4.50;1.77;;;6.90;99.90;;;;;;5009816;28;20235;-81
2022/11/25 08:35:14;;;;;;;4.43;2.20;;;7.00;99.90;;;;;;5013543;28;20543;-83
2022/11/25 08:37:40;;;;;;;4.03;1.77;;;7.10;99.90;;;;;;5012432;28;20204;-82
2022/11/25 08:40:06;;;;;;;8.87;2.60;;;7.10;99.90;;;;;;5012287;28;20207;-82
2022/11/25 08:42:32;;;;;;;5.07;2.60;;;7.20;99.90;;;;;;5012091;28;20197;-82
2022/11/25 08:44:58;;;;;;;4.23;2.90;;;7.30;99.90;;;;;;5013806;28;20209;-82
2022/11/25 08:47:24;;;;;;;4.53;2.97;;;7.30;99.90;;;;;;5012468;28;20585;-82
2022/11/25 08:49:52;;;;;;;6.30;3.53;;;7.40;99.90;;;;;;5013390;28;20175;-83
2022/11/25 08:52:18;;;;;;;6.07;2.70;;;7.40;99.90;;;;;;5012275;28;20221;-82
2022/11/25 08:54:44;;;;;;;4.47;2.27;;;7.40;99.90;;;;;;5013676;28;20174;-82
2022/11/25 08:57:09;;;;;;;9.10;4.50;;;7.50;99.90;;;;;;5012077;28;20610;-83
2022/11/25 08:59:35;;;;;;;6.50;3.40;;;7.70;99.90;;;;;;5012011;28;20191;-83
2022/11/25 09:02:01;;;;;;;5.53;3.33;;;7.80;99.90;;;;;;5012327;28;20349;-82
2022/11/25 09:04:26;;;;;;;4.30;2.33;;;7.90;99.90;;;;;;5013232;28;20191;-82
2022/11/25 09:06:52;;;;;;;7.23;2.90;;;7.80;99.90;;;;;;5012261;28;20274;-82
2022/11/25 09:09:17;;;;;;;5.37;2.00;;;7.70;99.90;;;;;;5013485;28;20233;-83
2022/11/25 09:11:43;;;;;;;6.30;1.87;;;7.70;99.90;;;;;;5009579;28;20243;-82
2022/11/25 09:14:09;;;;;;;4.40;1.90;;;7.70;99.90;;;;;;5011593;28;20241;-82
2022/11/25 09:16:35;;;;;;;4.03;1.77;;;7.60;99.90;;;;;;5012605;28;20221;-82
2022/11/25 09:19:00;;;;;;;6.27;1.83;;;7.60;99.90;;;;;;5011889;28;20220;-82
2022/11/25 09:21:26;;;;;;;3.83;1.80;;;7.60;99.90;;;;;;5011630;28;20205;-82
2022/11/25 09:23:53;;;;;;;4.17;1.87;;;7.50;99.90;;;;;;5013120;28;20257;-81
2022/11/25 09:26:24;;;;;;;4.07;1.63;;;7.50;99.90;;;;;;5011627;28;20189;-81
2022/11/25 09:28:50;;;;;;;2.83;1.80;;;7.60;99.90;;;;;;5010122;28;20245;-82
2022/11/25 09:31:16;;;;;;;6.00;2.67;;;7.50;99.90;;;;;;5011752;28;20210;-82
2022/11/25 09:33:42;;;;;;;5.23;1.80;;;7.60;99.90;;;;;;5012525;28;20194;-82
2022/11/25 09:36:10;;;;;;;5.27;1.80;;;7.70;99.90;;;;;;5012833;28;20186;-82
2022/11/25 09:38:35;;;;;;;4.43;2.00;;;7.70;99.90;;;;;;5011294;28;20202;-82
2022/11/25 09:41:13;;;;;;;4.90;1.80;;;7.80;99.90;;;;;;5012658;28;20256;-82
2022/11/25 09:47:18;;;;;;;5.17;1.90;;;7.80;99.90;;;;;;5009750;28;20212;-83
2022/11/25 09:49:59;;;;;;;3.63;2.00;;;7.70;99.90;;;;;;5011440;28;20189;-81
2022/11/25 09:53:16;;;;;;;6.10;1.90;;;7.70;99.90;;;;;;5011063;28;20636;-82
2022/11/25 09:55:48;;;;;;;3.57;1.60;;;7.60;99.90;;;;;;5010752;28;20174;-82
2022/11/25 09:58:28;;;;;;;3.30;1.70;;;7.50;99.90;;;;;;5011429;28;20228;-82
2022/11/25 10:00:54;;;;;;;4.60;1.70;;;7.50;99.90;;;;;;5011460;28;20214;-82
2022/11/25 10:03:28;;;;;;;3.17;1.40;;;7.50;99.90;;;;;;5012359;28;20222;-82
2022/11/25 10:06:05;;;;;;;3.87;1.70;;;7.40;99.90;;;;;;5011395;28;20178;-82
2022/11/25 10:08:54;;;;;;;4.63;1.90;;;7.40;99.90;;;;;;5011835;28;20273;-82
2022/11/25 10:11:19;;;;;;;4.10;1.70;;;7.40;99.90;;;;;;5012477;28;20210;-82
2022/11/25 10:13:56;;;;;;;3.60;1.70;;;7.40;99.90;;;;;;5012301;28;20181;-82
2022/11/25 10:16:55;;;;;;;2.93;1.90;;;7.30;99.90;;;;;;5011336;28;20251;-82
2022/11/25 10:19:58;;;;;;;3.50;2.20;;;7.30;99.90;;;;;;5006014;28;20160;-82
2022/11/25 10:22:31;;;;;;;4.83;2.30;;;7.30;99.90;;;;;;5010909;28;20289;-82
2022/11/25 10:25:11;;;;;;;6.23;2.50;;;7.20;99.90;;;;;;5012342;28;20198;-80
2022/11/25 10:27:45;;;;;;;4.83;2.20;;;7.20;99.90;;;;;;5007492;28;20230;-82
2022/11/25 10:30:45;;;;;;;5.17;2.23;;;7.20;99.90;;;;;;4991913;28;20209;-83
2022/11/25 10:33:38;;;;;;;5.57;2.83;;;7.10;99.90;;;;;;4982082;28;20253;-82
2022/11/25 10:36:17;;;;;;;4.80;2.10;;;7.10;99.90;;;;;;5008016;28;20230;-82
2022/11/25 10:38:47;;;;;;;6.60;2.83;;;7.00;99.90;;;;;;5010043;28;20178;-82
2022/11/25 10:41:17;;;;;;;3.80;2.30;;;7.00;99.90;;;;;;4995032;28;20185;-82
2022/11/25 10:43:44;;;;;;;6.40;3.20;;;7.00;99.90;;;;;;5011096;28;20178;-82
2022/11/25 10:46:22;;;;;;;6.77;3.57;;;6.90;99.90;;;;;;5015439;28;20179;-83
2022/11/25 10:49:00;;;;;;;5.37;3.23;;;6.90;99.90;;;;;;5015549;28;20179;-81
2022/11/25 10:51:46;;;;;;;7.87;2.90;;;6.80;99.90;;;;;;5014023;28;20211;-82
2022/11/25 10:54:12;;;;;;;5.57;2.90;;;6.80;99.90;;;;;;5027305;28;20185;-82
2022/11/25 10:56:55;;;;;;;7.37;2.53;;;6.80;99.90;;;;;;5014455;28;20175;-82
2022/11/25 10:59:27;;;;;;;4.00;2.40;;;6.80;99.90;;;;;;5016357;28;20178;-82
2022/11/25 11:02:11;;;;;;;6.37;2.80;;;6.70;99.90;;;;;;5010777;28;20211;-83
2022/11/25 11:05:00;;;;;;;6.30;3.10;;;6.60;99.90;;;;;;5014415;28;20174;-82
2022/11/25 11:07:32;;;;;;;6.57;2.70;;;6.70;99.90;;;;;;5015853;28;20182;-82
2022/11/25 11:10:18;;;;;;;4.60;2.70;;;6.60;99.90;;;;;;5015783;28;20205;-82
2022/11/25 11:12:53;;;;;;;7.60;2.97;;;6.60;99.90;;;;;;5013785;28;20585;-81
2022/11/25 11:15:28;;;;;;;5.33;2.67;;;6.60;99.90;;;;;;5014447;28;20189;-81
2022/11/25 11:17:55;;;;;;;8.27;3.07;;;6.60;99.90;;;;;;5015094;28;20217;-81
2022/11/25 11:20:29;;;;;;;6.50;3.43;;;6.60;99.90;;;;;;5014271;28;20667;-81
2022/11/25 11:23:09;;;;;;;4.33;2.60;;;6.60;99.90;;;;;;5012659;28;20205;-81
2022/11/25 11:25:37;;;;;;;5.13;2.37;;;6.60;99.90;;;;;;5010534;28;20186;-80
2022/11/25 11:28:25;;;;;;;9.03;4.93;;;6.60;99.90;;;;;;5015991;28;20570;-79
2022/11/25 11:31:00;;;;;;;5.90;2.67;;;6.70;99.90;;;;;;5015199;28;20230;-81
2022/11/25 11:33:34;;;;;;;4.13;2.40;;;6.70;99.90;;;;;;5026139;28;20216;-81
2022/11/25 11:36:05;;;;;;;5.70;2.30;;;6.70;99.90;;;;;;5015408;28;20176;-81
2022/11/25 11:38:54;;;;;;;4.33;2.20;;;6.70;99.90;;;;;;5015460;28;20189;-81
2022/11/25 11:41:43;;;;;;;4.17;2.60;;;6.70;99.90;;;;;;5013912;28;20182;-81
2022/11/25 11:44:24;;;;;;;2.90;2.20;;;6.70;99.90;;;;;;5014719;28;20542;-82
2022/11/25 11:46:59;;;;;;;4.93;2.70;;;6.70;99.90;;;;;;5013906;28;20186;-83
2022/11/25 11:50:07;;;;;;;4.03;2.67;;;6.70;99.90;;;;;;5013520;28;20193;-82
2022/11/25 11:52:55;;;;;;;6.57;3.30;;;6.70;99.90;;;;;;5008097;28;20640;-83
2022/11/25 11:55:23;;;;;;;5.53;3.00;;;6.70;99.90;;;;;;5013988;28;20169;-83
2022/11/25 11:57:58;;;;;;;8.53;4.60;;;6.70;99.90;;;;;;5013221;28;20543;-82
2022/11/25 12:00:29;;;;;;;5.00;3.37;;;6.80;99.90;;;;;;5013382;28;20189;-83
2022/11/25 12:03:04;;;;;;;6.63;4.10;;;6.80;99.90;;;;;;5014221;28;20187;-83
2022/11/25 12:05:33;;;;;;;7.87;4.03;;;6.80;99.90;;;;;;5013270;28;20174;-83
2022/11/25 12:08:05;;;;;;;7.40;3.53;;;6.80;99.90;;;;;;5014309;28;20179;-83
2022/11/25 12:10:40;;;;;;;7.50;4.43;;;6.90;99.90;;;;;;5012916;28;20203;-83
2022/11/25 12:13:37;;;;;;;9.27;5.30;;;6.80;99.90;;;;;;5011838;28;20203;-83
2022/11/25 12:16:09;;;;;;;8.07;4.10;;;6.70;99.90;;;;;;5013066;28;20174;-83
2022/11/25 12:18:54;;;;;;;7.73;4.03;;;6.60;99.90;;;;;;5014013;28;20186;-83
2022/11/25 12:21:57;;;;;;;5.20;3.67;;;6.60;99.90;;;;;;5013635;28;20610;-82
2022/11/25 12:24:37;;;;;;;6.53;3.80;;;6.70;99.90;;;;;;4996001;28;20183;-83
2022/11/25 12:27:30;;;;;;;12.33;7.53;;;6.70;99.90;;;;;;5010820;28;20585;-83
2022/11/25 12:29:55;;;;;;;9.23;4.80;;;6.70;99.90;;;;;;5007341;28;20191;-83
2022/11/25 12:32:41;;;;;;;12.53;7.47;;;6.70;99.90;;;;;;5040270;22;20585;-85
2022/11/25 12:35:54;;;;;;;12.97;7.40;;;6.70;99.90;;;;;;5015665;28;20234;-85
2022/11/25 12:38:56;;;;;;;8.53;5.40;;;6.60;99.90;;;;;;5044924;28;20187;-86
2022/11/25 12:41:43;;;;;;;7.33;4.30;;;6.60;99.90;;;;;;5031521;28;20188;-86
2022/11/25 12:44:34;;;;;;;9.80;5.20;;;6.60;99.90;;;;;;5011558;28;20178;-85
2022/11/25 12:47:00;;;;;;;7.80;4.57;;;6.60;99.90;;;;;;5011722;28;20177;-85
2022/11/25 12:49:27;;;;;;;10.90;6.20;;;6.60;99.90;;;;;;5012963;28;20768;-85
2022/11/25 12:52:15;;;;;;;7.47;5.20;;;6.70;99.90;;;;;;5012617;28;20220;-86
2022/11/25 12:54:50;;;;;;;10.73;5.90;;;6.60;99.90;;;;;;5011506;28;20177;-86
2022/11/25 12:57:39;;;;;;;5.80;4.40;;;6.60;99.90;;;;;;5011646;28;20178;-86
2022/11/25 13:00:14;;;;;;;7.87;4.20;;;6.60;99.90;;;;;;5011169;28;20543;-85
2022/11/25 13:02:51;;;;;;;4.73;4.10;;;6.60;99.90;;;;;;5011376;28;20197;-85
2022/11/25 13:05:38;;;;;;;6.27;4.13;;;6.60;99.90;;;;;;5011306;28;20208;-85
2022/11/25 13:08:22;;;;;;;5.07;3.53;;;6.60;99.90;;;;;;5011473;28;20209;-86
2022/11/25 13:11:14;;;;;;;6.67;4.00;;;6.60;99.90;;;;;;5011040;28;20204;-85
2022/11/25 13:13:56;;;;;;;7.17;4.10;;;6.60;99.90;;;;;;4981456;28;20682;-85
2022/11/25 13:16:23;;;;;;;6.63;4.13;;;6.50;99.90;;;;;;5012590;28;20334;-85
2022/11/25 13:18:49;;;;;;;7.30;5.37;;;6.50;99.90;;;;;;5012438;28;20175;-85
2022/11/25 13:21:17;;;;;;;6.93;4.57;;;6.50;99.90;;;;;;5012231;28;20566;-85
2022/11/25 13:23:51;;;;;;;9.53;6.97;;;6.50;99.90;;;;;;5008491;28;20200;-84
2022/11/25 13:26:46;;;;;;;10.10;7.13;;;6.40;99.90;;;;;;5000830;28;20707;-85